createdAt,value
2019-01-15T00:00:37.937Z,1.7
2019-01-15T00:03:38.159Z,1.7
2019-01-15T00:06:37.592Z,1.7
2019-01-15T00:09:38.031Z,1.8
2019-01-15T00:12:38.685Z,1.6
2019-01-15T00:15:37.684Z,1.8
2019-01-15T00:18:39.597Z,1.8
2019-01-15T00:21:37.710Z,2.2
2019-01-15T00:24:37.705Z,1.6
2019-01-15T00:27:37.862Z,1.7
2019-01-15T00:30:38.095Z,2.3
2019-01-15T00:33:37.693Z,2.8
2019-01-15T00:36:37.989Z,1.6
2019-01-15T00:39:37.695Z,1.9
2019-01-15T00:42:38.689Z,2.3
2019-01-15T00:45:38.192Z,2.4
2019-01-15T00:48:37.760Z,1.6
2019-01-15T00:51:37.782Z,1.8
2019-01-15T00:54:37.774Z,1.9
2019-01-15T00:57:37.908Z,1.7
2019-01-15T01:00:37.839Z,1.7
2019-01-15T01:03:37.821Z,1.5
2019-01-15T01:06:38.074Z,1.6
2019-01-15T01:09:37.692Z,1.6
2019-01-15T01:12:37.683Z,1.6
2019-01-15T01:15:38.394Z,1.6
2019-01-15T01:18:37.915Z,1.6
2019-01-15T01:21:37.970Z,1.6
2019-01-15T01:24:38.255Z,1.6
2019-01-15T01:27:38.061Z,1.5
2019-01-15T01:30:37.636Z,1.5
2019-01-15T01:33:37.990Z,1.7
2019-01-15T01:36:38.149Z,1.7
2019-01-15T01:39:37.837Z,1.5
2019-01-15T01:42:37.821Z,1.4
2019-01-15T01:45:38.153Z,1.5
2019-01-15T01:48:38.209Z,1.5
2019-01-15T01:51:38.010Z,1.5
2019-01-15T01:54:37.960Z,1.5
2019-01-15T01:57:37.837Z,1.7
2019-01-15T02:00:37.970Z,1.6
2019-01-15T02:03:38.342Z,1.5
2019-01-15T02:06:37.962Z,1.7
2019-01-15T02:09:38.099Z,1.6
2019-01-15T02:12:38.145Z,1.5
2019-01-15T02:15:38.175Z,1.5
2019-01-15T02:18:38.112Z,1.5
2019-01-15T02:21:37.850Z,1.5
2019-01-15T02:24:37.822Z,1.5
2019-01-15T02:27:37.587Z,1.5
2019-01-15T02:30:37.673Z,1.6
2019-01-15T02:33:37.729Z,1.6
2019-01-15T02:36:38.084Z,1.5
2019-01-15T02:39:37.848Z,1.5
2019-01-15T02:42:47.603Z,1.5
2019-01-15T02:45:37.960Z,1.5
2019-01-15T02:48:38.075Z,1.5
2019-01-15T02:51:37.852Z,1.5
2019-01-15T02:54:37.883Z,1.3
2019-01-15T02:57:38.221Z,1.5
2019-01-15T03:00:38.028Z,1.4
2019-01-15T03:03:37.711Z,1.6
2019-01-15T03:06:37.869Z,1.6
2019-01-15T03:09:37.925Z,1.7
2019-01-15T03:12:38.197Z,1.5
2019-01-15T03:15:37.757Z,1.5
2019-01-15T03:18:37.706Z,1.4
2019-01-15T03:21:38.040Z,1.5
2019-01-15T03:24:37.861Z,1.4
2019-01-15T03:27:37.839Z,1.7
2019-01-15T03:30:38.352Z,1.6
2019-01-15T03:33:38.181Z,1.6
2019-01-15T03:36:38.144Z,1.7
2019-01-15T03:39:37.957Z,1.5
2019-01-15T03:42:38.056Z,1.5
2019-01-15T03:45:38.024Z,1.5
2019-01-15T03:48:37.780Z,1.5
2019-01-15T03:51:38.042Z,1.8
2019-01-15T03:54:37.771Z,1.6
2019-01-15T03:57:37.699Z,1.4
2019-01-15T04:00:37.721Z,1.6
2019-01-15T04:03:37.779Z,1.7
2019-01-15T04:06:38.202Z,1.3
2019-01-15T04:09:37.752Z,1.7
2019-01-15T04:12:38.079Z,1.7
2019-01-15T04:15:37.910Z,1.5
2019-01-15T04:18:37.649Z,1.5
2019-01-15T04:21:37.771Z,1.4
2019-01-15T04:24:37.505Z,1.6
2019-01-15T04:27:37.966Z,1.5
2019-01-15T04:30:37.965Z,1.9
2019-01-15T04:33:37.849Z,1.7
2019-01-15T04:36:37.756Z,1.4
2019-01-15T04:39:38.003Z,1.8
2019-01-15T04:42:37.709Z,1.7
2019-01-15T04:45:37.635Z,2.3
2019-01-15T04:48:37.654Z,1.5
2019-01-15T04:51:37.770Z,1.8
2019-01-15T04:54:37.829Z,1.6
2019-01-15T04:57:37.678Z,1.5
2019-01-15T05:00:37.796Z,1.5
2019-01-15T05:03:37.844Z,1.5
2019-01-15T05:06:37.578Z,1.5
2019-01-15T05:09:37.789Z,2.4
2019-01-15T05:12:37.570Z,1.6
2019-01-15T05:15:37.586Z,1.3
2019-01-15T05:18:37.728Z,1.4
2019-01-15T05:21:38.632Z,1.8
2019-01-15T05:24:37.969Z,2.3
2019-01-15T05:27:37.898Z,2.4
2019-01-15T05:30:37.896Z,1.7
2019-01-15T05:33:37.940Z,1.5
2019-01-15T05:36:38.088Z,2.5
2019-01-15T05:39:37.899Z,2.3
2019-01-15T05:42:38.633Z,1.6
2019-01-15T05:45:37.933Z,1.7
2019-01-15T05:48:37.773Z,1.8
2019-01-15T05:51:37.883Z,1.8
2019-01-15T05:54:37.744Z,1.7
2019-01-15T05:57:37.893Z,1.5
2019-01-15T06:00:37.538Z,1.4
2019-01-15T06:03:37.455Z,1.7
2019-01-15T06:06:37.834Z,1.4
2019-01-15T06:09:37.906Z,1.6
2019-01-15T06:12:37.978Z,1.6
2019-01-15T06:15:37.475Z,1.4
2019-01-15T06:18:39.491Z,1.7
2019-01-15T06:21:37.710Z,1.4
2019-01-15T06:24:37.752Z,1.9
2019-01-15T06:27:39.535Z,1.9
2019-01-15T06:30:37.724Z,5.6
2019-01-15T06:33:38.718Z,8.8
2019-01-15T06:36:39.185Z,6.3
2019-01-15T06:39:38.026Z,7.2
2019-01-15T06:42:38.001Z,6.4
2019-01-15T06:45:38.438Z,4.7
2019-01-15T06:48:38.098Z,8.1
2019-01-15T06:51:37.745Z,5.2
2019-01-15T06:54:37.694Z,5
2019-01-15T06:57:38.037Z,5.5
2019-01-15T07:00:38.639Z,4.6
2019-01-15T07:03:38.389Z,4.2
2019-01-15T07:06:37.472Z,2.6
2019-01-15T07:09:37.795Z,4.3
2019-01-15T07:12:39.424Z,3.8
2019-01-15T07:15:37.806Z,2.8
2019-01-15T07:18:37.852Z,3.6
2019-01-15T07:21:37.787Z,3.2
2019-01-15T07:24:38.180Z,3
2019-01-15T07:27:37.875Z,2.6
2019-01-15T07:30:37.732Z,3.7
2019-01-15T07:33:37.463Z,3.5
2019-01-15T07:36:37.575Z,2.7
2019-01-15T07:39:37.794Z,3.4
2019-01-15T07:42:37.591Z,2.7
2019-01-15T07:45:38.050Z,2.4
2019-01-15T07:48:37.878Z,2.7
2019-01-15T07:51:38.786Z,2.9
2019-01-15T07:54:37.664Z,3.2
2019-01-15T07:57:37.871Z,3.1
2019-01-15T08:00:37.856Z,2.4
2019-01-15T08:03:37.549Z,2.1
2019-01-15T08:06:37.870Z,2.6
2019-01-15T08:09:37.554Z,2.1
2019-01-15T08:12:37.955Z,2
2019-01-15T08:15:37.753Z,2.5
2019-01-15T08:18:37.770Z,2.4
2019-01-15T08:21:37.779Z,2.4
2019-01-15T08:24:37.890Z,2
2019-01-15T08:27:37.611Z,2.6
2019-01-15T08:30:37.716Z,2.9
2019-01-15T08:33:37.998Z,2.4
2019-01-15T08:36:37.707Z,2.2
2019-01-15T08:39:38.206Z,2
2019-01-15T08:42:37.570Z,2.3
2019-01-15T08:45:37.823Z,3.1
2019-01-15T08:48:37.869Z,2.5
2019-01-15T08:51:37.768Z,2.2
2019-01-15T08:54:37.981Z,2
2019-01-15T08:57:37.743Z,2.4
2019-01-15T09:00:38.598Z,2.5
2019-01-15T09:03:37.671Z,1.9
2019-01-15T09:06:37.820Z,2
2019-01-15T09:09:38.094Z,1.9
2019-01-15T09:12:37.713Z,5.1
2019-01-15T09:15:37.768Z,2.1
2019-01-15T09:18:38.235Z,2.8
2019-01-15T09:21:37.583Z,2.6
2019-01-15T09:24:38.075Z,3.4
2019-01-15T09:27:38.167Z,2.1
2019-01-15T09:30:37.838Z,2
2019-01-15T09:33:37.792Z,3
2019-01-15T09:36:38.155Z,2.1
2019-01-15T09:39:38.141Z,2.6
2019-01-15T09:42:37.911Z,2.2
2019-01-15T09:45:38.159Z,2.8
2019-01-15T09:48:37.774Z,4
2019-01-15T09:51:39.596Z,2.8
2019-01-15T09:54:37.650Z,2.5
2019-01-15T09:57:37.555Z,2
2019-01-15T10:00:37.387Z,2.3
2019-01-15T10:03:37.378Z,3.2
2019-01-15T10:06:38.121Z,1.9
2019-01-15T10:09:38.573Z,1.6
2019-01-15T10:12:37.613Z,1.8
2019-01-15T10:15:37.954Z,1.6
2019-01-15T10:18:37.896Z,2
2019-01-15T10:21:37.443Z,2
2019-01-15T10:24:37.559Z,2.2
2019-01-15T10:27:37.551Z,1.8
2019-01-15T10:30:37.781Z,1.6
2019-01-15T10:33:37.582Z,2.1
2019-01-15T10:36:37.551Z,2.2
2019-01-15T10:39:37.717Z,3.9
2019-01-15T10:42:37.781Z,3
2019-01-15T10:45:37.564Z,1.9
2019-01-15T10:48:37.633Z,1.7
2019-01-15T10:51:37.688Z,1.8
2019-01-15T10:54:37.896Z,2
2019-01-15T10:57:37.548Z,1.8
2019-01-15T11:00:37.529Z,9
2019-01-15T11:03:37.461Z,4.8
2019-01-15T11:06:37.544Z,1.6
2019-01-15T11:09:37.455Z,3.2
2019-01-15T11:12:37.733Z,2.1
2019-01-15T11:15:43.778Z,5.8
2019-01-15T11:18:37.351Z,2.2
2019-01-15T11:21:38.317Z,3.2
2019-01-15T11:24:38.783Z,3
2019-01-15T11:27:37.819Z,1.9
2019-01-15T11:30:38.146Z,2.2
2019-01-15T11:33:37.851Z,1.5
2019-01-15T11:36:38.342Z,1.9
2019-01-15T11:39:38.159Z,2.5
2019-01-15T11:42:37.573Z,2
2019-01-15T11:45:37.537Z,1.8
2019-01-15T11:48:37.591Z,2.1
2019-01-15T11:51:37.461Z,1.8
2019-01-15T11:54:38.051Z,1.5
2019-01-15T11:57:37.985Z,2.2
2019-01-15T12:00:37.832Z,2
2019-01-15T12:03:37.488Z,1.6
2019-01-15T12:06:37.332Z,3.5
2019-01-15T12:09:38.488Z,2
2019-01-15T12:12:37.463Z,1.7
2019-01-15T12:15:37.834Z,2.5
2019-01-15T12:18:37.421Z,1.9
2019-01-15T12:21:38.119Z,2.6
2019-01-15T12:24:37.881Z,1.6
2019-01-15T12:27:38.091Z,2.8
2019-01-15T12:30:37.661Z,1.9
2019-01-15T12:33:37.594Z,1.7
2019-01-15T12:36:37.810Z,2.2
2019-01-15T12:39:37.850Z,2.3
2019-01-15T12:42:37.409Z,1.6
2019-01-15T12:45:37.575Z,1.7
2019-01-15T12:48:37.953Z,2.3
2019-01-15T12:51:37.937Z,2.1
2019-01-15T12:54:37.938Z,2.9
2019-01-15T12:57:37.389Z,2.2
2019-01-15T13:00:38.100Z,4.1
2019-01-15T13:03:37.989Z,2
2019-01-15T13:06:37.312Z,2.3
2019-01-15T13:09:39.306Z,3.2
2019-01-15T13:12:38.837Z,2.4
2019-01-15T13:15:39.396Z,3.6
2019-01-15T13:18:37.826Z,2.8
2019-01-15T13:21:37.472Z,2.7
2019-01-15T13:24:38.372Z,2.3
2019-01-15T13:27:37.546Z,1.8
2019-01-15T13:30:38.081Z,2.9
2019-01-15T13:33:37.498Z,2.5
2019-01-15T13:36:37.611Z,2.3
2019-01-15T13:39:37.482Z,3.9
2019-01-15T13:42:37.799Z,4.6
2019-01-15T13:45:42.381Z,6.4
2019-01-15T13:48:37.646Z,8.8
2019-01-15T13:51:37.810Z,7.3
2019-01-15T13:54:37.611Z,8
2019-01-15T13:57:37.770Z,9.5
2019-01-15T14:00:37.448Z,8.6
2019-01-15T14:03:37.505Z,6.3
2019-01-15T14:06:37.530Z,6.4
2019-01-15T14:09:37.462Z,6.7
2019-01-15T14:12:37.746Z,4.9
2019-01-15T14:15:37.607Z,6.5
2019-01-15T14:18:37.535Z,5.1
2019-01-15T14:21:37.320Z,4.9
2019-01-15T14:24:37.360Z,4.8
2019-01-15T14:27:37.496Z,6.2
2019-01-15T14:30:37.684Z,5.1
2019-01-15T14:33:37.563Z,4.9
2019-01-15T14:36:37.455Z,5.8
2019-01-15T14:39:37.655Z,6
2019-01-15T14:42:37.796Z,4.6
2019-01-15T14:45:37.863Z,6.5
2019-01-15T14:48:39.256Z,5
2019-01-15T14:51:38.482Z,4.1
2019-01-15T14:54:37.470Z,4.8
2019-01-15T14:57:38.868Z,4.9
2019-01-15T15:00:37.614Z,3.5
2019-01-15T15:03:37.396Z,4.1
2019-01-15T15:06:37.820Z,4.2
2019-01-15T15:09:37.401Z,4.1
2019-01-15T15:12:37.619Z,3.6
2019-01-15T15:15:37.787Z,3.7
2019-01-15T15:18:37.420Z,4.1
2019-01-15T15:21:37.823Z,10.1
2019-01-15T15:24:39.864Z,8.1
2019-01-15T15:27:39.250Z,5.2
2019-01-15T15:30:37.515Z,5.9
2019-01-15T15:33:37.528Z,5.9
2019-01-15T15:36:39.304Z,6.7
2019-01-15T15:39:37.533Z,5.5
2019-01-15T15:42:37.860Z,6.5
2019-01-15T15:45:37.791Z,5.2
2019-01-15T15:48:37.435Z,5.9
2019-01-15T15:51:37.701Z,5.6
2019-01-15T15:54:37.417Z,9.3
2019-01-15T15:57:37.817Z,9.1
2019-01-15T16:00:37.452Z,12.6
2019-01-15T16:03:37.600Z,6.1
2019-01-15T16:06:37.418Z,6
2019-01-15T16:09:37.357Z,7.4
2019-01-15T16:12:37.280Z,8.2
2019-01-15T16:15:37.690Z,5.3
2019-01-15T16:18:39.315Z,5.3
2019-01-15T16:21:37.335Z,7.6
2019-01-15T16:24:37.819Z,7.3
2019-01-15T16:27:37.672Z,6.4
2019-01-15T16:30:37.628Z,5.6
2019-01-15T16:33:37.450Z,6.9
2019-01-15T16:36:37.997Z,7.5
2019-01-15T16:39:37.726Z,5.1
2019-01-15T16:42:37.726Z,6.7
2019-01-15T16:45:37.355Z,6.8
2019-01-15T16:48:37.744Z,5.9
2019-01-15T16:51:37.510Z,7.3
2019-01-15T16:54:37.186Z,9.1
2019-01-15T16:57:37.804Z,5.7
2019-01-15T17:00:38.112Z,4.9
2019-01-15T17:03:37.997Z,4.6
2019-01-15T17:06:37.870Z,6.7
2019-01-15T17:09:37.466Z,3.7
2019-01-15T17:12:37.493Z,6.3
2019-01-15T17:15:37.752Z,4.6
2019-01-15T17:18:37.859Z,4
2019-01-15T17:21:37.465Z,7.4
2019-01-15T17:24:37.775Z,4.6
2019-01-15T17:27:37.964Z,4.9
2019-01-15T17:30:37.160Z,3.5
2019-01-15T17:33:37.283Z,4.2
2019-01-15T17:36:37.265Z,3.7
2019-01-15T17:39:37.342Z,3.6
2019-01-15T17:42:37.705Z,3.6
2019-01-15T17:45:37.330Z,3.9
2019-01-15T17:48:37.348Z,3.2
2019-01-15T17:51:37.476Z,2.8
2019-01-15T17:54:37.684Z,4.3
2019-01-15T17:57:37.567Z,6.6
2019-01-15T18:00:37.466Z,4.1
2019-01-15T18:03:37.341Z,3.6
2019-01-15T18:06:37.893Z,3.5
2019-01-15T18:09:37.558Z,3.4
2019-01-15T18:12:37.746Z,3.2
2019-01-15T18:15:38.186Z,3.7
2019-01-15T18:18:38.221Z,4
2019-01-15T18:21:37.432Z,3.8
2019-01-15T18:24:37.261Z,2.9
2019-01-15T18:27:37.413Z,3
2019-01-15T18:30:37.437Z,2.5
2019-01-15T18:33:37.428Z,3.8
2019-01-15T18:36:37.455Z,2.8
2019-01-15T18:39:37.078Z,4.2
2019-01-15T18:42:37.557Z,2.7
2019-01-15T18:45:39.325Z,3.1
2019-01-15T18:48:37.585Z,2.7
2019-01-15T18:51:37.534Z,2.6
2019-01-15T18:54:37.767Z,3.9
2019-01-15T18:57:37.859Z,3.1
2019-01-15T19:00:37.770Z,3.1
2019-01-15T19:03:37.912Z,2.9
2019-01-15T19:06:37.386Z,2.6
2019-01-15T19:09:37.869Z,2.7
2019-01-15T19:12:37.222Z,2.4
2019-01-15T19:15:37.698Z,3
2019-01-15T19:18:37.932Z,2.6
2019-01-15T19:21:37.222Z,2.9
2019-01-15T19:24:37.490Z,3
2019-01-15T19:27:37.524Z,2.4
2019-01-15T19:30:37.723Z,2.7
2019-01-15T19:33:37.377Z,2
2019-01-15T19:36:37.834Z,2.9
2019-01-15T19:39:37.782Z,3.1
2019-01-15T19:42:37.208Z,2.5
2019-01-15T19:45:37.286Z,3.1
2019-01-15T19:48:37.719Z,2.5
2019-01-15T19:51:37.440Z,2.7
2019-01-15T19:54:37.334Z,2.8
2019-01-15T19:57:37.303Z,3
2019-01-15T20:00:37.486Z,3.5
2019-01-15T20:03:37.335Z,2.5
2019-01-15T20:06:37.636Z,2.6
2019-01-15T20:09:37.356Z,3.6
2019-01-15T20:12:37.248Z,2.1
2019-01-15T20:15:37.443Z,3
2019-01-15T20:18:38.234Z,2.5
2019-01-15T20:21:37.661Z,2.4
2019-01-15T20:24:37.303Z,2.5
2019-01-15T20:27:37.296Z,4.1
2019-01-15T20:30:37.371Z,3.8
2019-01-15T20:33:37.788Z,2.7
2019-01-15T20:36:37.590Z,2.8
2019-01-15T20:39:37.358Z,2.7
2019-01-15T20:42:37.911Z,2.7
2019-01-15T20:45:38.067Z,2.6
2019-01-15T20:48:37.316Z,2.9
2019-01-15T20:51:37.271Z,2.6
2019-01-15T20:54:39.168Z,3.3
2019-01-15T20:57:37.801Z,3.2
2019-01-15T21:00:37.334Z,3.5
2019-01-15T21:03:37.315Z,3.1
2019-01-15T21:06:37.226Z,2.9
2019-01-15T21:09:37.708Z,2.5
2019-01-15T21:12:37.622Z,2.2
2019-01-15T21:15:37.531Z,3.2
2019-01-15T21:18:37.559Z,2.8
2019-01-15T21:21:37.303Z,2.8
2019-01-15T21:24:37.514Z,2.6
2019-01-15T21:27:37.663Z,2.3
2019-01-15T21:30:37.384Z,2.6
2019-01-15T21:33:37.797Z,3.3
2019-01-15T21:36:38.082Z,3.4
2019-01-15T21:39:37.277Z,4.1
2019-01-15T21:42:37.485Z,3.5
2019-01-15T21:45:37.314Z,2.8
2019-01-15T21:48:37.510Z,5.6
2019-01-15T21:51:37.387Z,3.4
2019-01-15T21:54:37.385Z,2.8
2019-01-15T21:57:37.466Z,4.1
2019-01-15T22:00:37.880Z,3.2
2019-01-15T22:03:37.796Z,2.7
2019-01-15T22:06:37.431Z,3.1
2019-01-15T22:09:38.002Z,2.9
2019-01-15T22:12:37.124Z,3.1
2019-01-15T22:15:37.741Z,3.1
2019-01-15T22:18:37.532Z,3.9
2019-01-15T22:21:37.913Z,2.9
2019-01-15T22:24:37.250Z,2.3
2019-01-15T22:27:37.405Z,2.5
2019-01-15T22:30:39.062Z,2.6
2019-01-15T22:33:37.566Z,2.6
2019-01-15T22:36:37.522Z,2.7
2019-01-15T22:39:37.237Z,2.2
2019-01-15T22:42:37.668Z,3.3
2019-01-15T22:45:38.901Z,2.7
2019-01-15T22:48:37.460Z,2.9
2019-01-15T22:51:37.607Z,2.2
2019-01-15T22:54:37.153Z,2.4
2019-01-15T22:57:39.008Z,2.5
2019-01-15T23:00:37.553Z,2.5
2019-01-15T23:03:37.554Z,2.8
2019-01-15T23:06:37.614Z,2.4
2019-01-15T23:09:37.237Z,3.3
2019-01-15T23:12:37.860Z,3.3
2019-01-15T23:15:37.073Z,3
2019-01-15T23:18:37.428Z,3
2019-01-15T23:21:37.446Z,3
2019-01-15T23:24:37.786Z,2.4
2019-01-15T23:27:37.192Z,2.6
2019-01-15T23:30:37.155Z,2.4
2019-01-15T23:33:37.196Z,2.3
2019-01-15T23:36:37.075Z,2.3
2019-01-15T23:39:37.375Z,3
2019-01-15T23:42:37.439Z,2.3
2019-01-15T23:45:37.322Z,2.6
2019-01-15T23:48:37.558Z,2.4
2019-01-15T23:51:38.177Z,2.3
2019-01-15T23:54:37.558Z,2.1
2019-01-15T23:57:37.743Z,2.9
